AA721 / N752AN 7700 Squawk Report (9th of August, 2022)

Aircraft B772 Reg No. N752AN Age 21 years old
Model 777 Jet engines 2 First flight 26-04-01
Registered 16-05-01 Rollout 10-04-01 Delivered 16-05-01
Construction No. 30260 Line No. 0339 Series 223(ER)
ADSHEX AA2184 Airline name American Airlines Owner N/A
Airfield based Dallas-Fort Worth~TX~N First tracked N/A

Flight history for N752AN

Route Flight No Date Playback
Heathrow (LHR) - Raleigh Durham Intl (RDU) AA173 2022-10-07 19:03:00
Charlotte Douglas (CLT) - Heathrow (LHR) AA730 2022-10-07 06:26:00
Barajas (MAD) - Charlotte Douglas (CLT) AA749 2022-10-06 19:15:00
John F Kennedy Intl (JFK) - Barajas (MAD) AA94 2022-10-06 06:43:00
Barcelona–El Prat (BCN) - John F Kennedy Intl (JFK) AA67 2022-10-05 23:13:00
Miami Intl (MIA) - Barcelona–El Prat (BCN) AA112 2022-10-05 04:30:00
Ministro Pistarini (EZE) - Miami Intl (MIA) AA900 2022-10-04 08:34:00
John F Kennedy Intl (JFK) - Ministro Pistarini (EZE) AA953 2022-10-04 00:02:00
Barcelona–El Prat (BCN) - John F Kennedy Intl (JFK) AA67 2022-10-02 20:18:00
John F Kennedy Intl (JFK) - Barcelona–El Prat (BCN) AA66 2022-10-02 04:32:00
Fiumicino (FCO) - John F Kennedy Intl (JFK) AA235 2022-10-01 18:11:00
John F Kennedy Intl (JFK) - Fiumicino (FCO) AA236 2022-10-01 08:36:00
Charles De Gaulle (CDG) - John F Kennedy Intl (JFK) AA45 2022-09-30 18:45:00
John F Kennedy Intl (JFK) - Charles De Gaulle (CDG) AA44 2022-09-30 05:20:00
Barcelona–El Prat (BCN) - John F Kennedy Intl (JFK) AA67 2022-09-29 21:21:00
Miami Intl (MIA) - Barcelona–El Prat (BCN) AA112 2022-09-29 05:20:00
Galeao Antonio Carlos Jobim (GIG) - Miami Intl (MIA) AA904 2022-09-27 10:40:00
Miami Intl (MIA) - Galeao Antonio Carlos Jobim (GIG) AA905 2022-09-26 09:08:00
Barcelona–El Prat (BCN) - Miami Intl (MIA) AA113 2022-09-25 17:17:00
John F Kennedy Intl (JFK) - Barcelona–El Prat (BCN) AA66 2022-09-25 07:12:00
Time Lat Lon Altitude Heading Speed Vertical Rate
2022-08-09 09:21:39 GMT 41.788185 12.243416 0 343 0 0
2022-08-09 09:21:29 GMT 41.788158 12.243436 0 343 2 0
2022-08-09 09:21:18 GMT 41.788078 12.243467 0 343 2 0
2022-08-09 09:21:08 GMT 41.787975 12.243514 0 343 3 0
2022-08-09 09:20:58 GMT 41.787827 12.243576 0 343 5 0
2022-08-09 09:20:47 GMT 41.787617 12.243704 0 5 5 0
2022-08-09 09:20:37 GMT 41.787395 12.243720 0 50 6 0
2022-08-09 09:20:27 GMT 41.787254 12.243467 0 70 6 0
2022-08-09 09:20:17 GMT 41.787163 12.243092 0 73 8 0
2022-08-09 09:20:06 GMT 41.787060 12.242634 0 73 8 0
2022-08-09 09:19:56 GMT 41.786945 12.242234 0 84 6 0
2022-08-09 09:19:46 GMT 41.786900 12.241891 0 123 7 0
2022-08-09 09:19:35 GMT 41.787094 12.241564 0 160 8 0
2022-08-09 09:19:25 GMT 41.787460 12.241407 0 163 9 0
2022-08-09 09:19:18 GMT 41.787769 12.241277 0 163 9 0
2022-08-09 09:19:15 GMT 41.787849 12.241235 0 163 9 0
2022-08-09 09:19:07 GMT 41.788174 12.241101 0 163 9 0
2022-08-09 09:19:04 GMT 41.788261 12.241064 0 163 9 0
2022-08-09 09:18:54 GMT 41.788673 12.240909 0 160 7 0
2022-08-09 09:18:46 GMT 41.788879 12.240814 0 154 6 0
2022-08-09 09:18:43 GMT 41.788967 12.240782 0 149 6 0
2022-08-09 09:18:36 GMT 41.789131 12.240689 0 126 6 0
2022-08-09 09:18:33 GMT 41.789211 12.240611 0 112 7 0
2022-08-09 09:18:26 GMT 41.789291 12.240366 0 101 7 0
2022-08-09 09:18:22 GMT 41.789303 12.240221 0 106 6 0
2022-08-09 09:18:15 GMT 41.789349 12.239967 0 115 7 0
2022-08-09 09:18:12 GMT 41.789387 12.239839 0 120 7 0
2022-08-09 09:18:02 GMT 41.789597 12.239440 0 129 8 0
2022-08-09 09:17:51 GMT 41.789841 12.239050 0 132 8 0
2022-08-09 09:17:40 GMT 41.790073 12.238706 0 135 6 0
2022-08-09 09:17:09 GMT 41.790199 12.238546 0 132 0 0
2022-08-09 09:16:58 GMT 41.790195 12.238551 0 132 0 0
2022-08-09 09:16:48 GMT 41.790195 12.238535 0 132 0 0
2022-08-09 09:16:38 GMT 41.790199 12.238546 0 132 0 0
2022-08-09 09:16:14 GMT 41.790195 12.238551 0 132 0 0
2022-08-09 09:16:04 GMT 41.790199 12.238546 0 132 0 0
2022-08-09 09:15:44 GMT 41.790195 12.238551 0 132 0 0
2022-08-09 09:15:37 GMT 41.790199 12.238546 0 132 0 0
2022-08-09 09:15:16 GMT 41.790195 12.238551 0 132 0 0
2022-08-09 09:15:06 GMT 41.790207 12.238535 0 132 0 0
2022-08-09 09:14:56 GMT 41.790253 12.238473 0 132 3 0
2022-08-09 09:14:45 GMT 41.790421 12.238227 0 132 8 0
2022-08-09 09:14:35 GMT 41.790791 12.237693 0 135 17 0
2022-08-09 09:14:25 GMT 41.791637 12.236710 0 149 32 0
2022-08-09 09:14:14 GMT 41.793213 12.235704 0 160 47 0
2022-08-09 09:14:09 GMT 41.794636 12.235118 0 163 60 0
2022-08-09 09:14:01 GMT 41.796902 12.234181 -50 163 84 0
2022-08-09 09:13:51 GMT 41.801117 12.232382 -50 162 116 64
2022-08-09 09:13:41 GMT 41.807449 12.229763 -75 162 164 -128
2022-08-09 09:13:32 GMT 41.815269 12.226506 -25 162 175 -832
2022-08-09 09:13:21 GMT 41.822857 12.223312 125 162 175 -896
2022-08-09 09:13:11 GMT 41.830490 12.220105 275 162 175 -768
2022-08-09 09:13:00 GMT 41.838684 12.216669 425 163 175 -1024
2022-08-09 09:12:51 GMT 41.846558 12.213364 600 161 176 -832
2022-08-09 09:12:40 GMT 41.854420 12.209962 750 162 174 -960
2022-08-09 09:12:30 GMT 41.862099 12.206769 900 162 172 -896
2022-08-09 09:12:19 GMT 41.870621 12.203256 1,050 162 173 -896
2022-08-09 09:12:14 GMT 41.874203 12.201723 1,125 162 175 -1024
2022-08-09 09:12:09 GMT 41.877789 12.200254 1,200 161 175 -1024
2022-08-09 09:12:05 GMT 41.881943 12.198445 1,275 162 175 -896
2022-08-09 09:12:00 GMT 41.886154 12.196697 1,325 163 174 -768
2022-08-09 09:11:52 GMT 41.891556 12.194450 1,450 162 173 -832
2022-08-09 09:11:49 GMT 41.893707 12.193513 1,475 161 174 -960
2022-08-09 09:11:45 GMT 41.896919 12.192142 1,550 162 175 -960
2022-08-09 09:11:39 GMT 41.901672 12.190143 1,650 162 175 -1024
2022-08-09 09:11:35 GMT 41.904602 12.188884 1,725 162 175 -896
2022-08-09 09:11:28 GMT 41.909958 12.186647 1,775 162 174 -768
2022-08-09 09:11:24 GMT 41.912518 12.185562 1,850 162 175 -896
2022-08-09 09:11:18 GMT 41.917496 12.183519 1,950 162 176 -960
2022-08-09 09:11:14 GMT 41.920383 12.182241 2,000 162 178 -896
2022-08-09 09:11:09 GMT 41.925385 12.180155 2,100 162 179 -960
2022-08-09 09:11:05 GMT 41.928532 12.178856 2,200 162 179 -1152
2022-08-09 09:10:58 GMT 41.933559 12.176748 2,275 162 180 -1152
2022-08-09 09:10:54 GMT 41.936783 12.175411 2,350 162 180 -1152
2022-08-09 09:10:50 GMT 41.940536 12.173788 2,425 162 179 -1024
2022-08-09 09:10:47 GMT 41.942032 12.173107 2,475 162 180 -1152
2022-08-09 09:10:44 GMT 41.944565 12.172102 2,525 163 178 -832
2022-08-09 09:10:39 GMT 41.948410 12.170480 2,600 161 177 -320
2022-08-09 09:10:36 GMT 41.950783 12.169402 2,600 161 177 -320
2022-08-09 09:10:33 GMT 41.952805 12.168544 2,600 161 177 128
2022-08-09 09:10:27 GMT 41.958115 12.166172 2,600 162 177 -128
2022-08-09 09:10:24 GMT 41.960373 12.165187 2,600 162 176 0
2022-08-09 09:10:17 GMT 41.965759 12.162864 2,600 162 176 192
2022-08-09 09:10:13 GMT 41.968891 12.161546 2,575 161 178 128
2022-08-09 09:10:08 GMT 41.972946 12.159805 2,600 162 179 -192
2022-08-09 09:10:04 GMT 41.976379 12.158370 2,600 163 180 64
2022-08-09 09:09:56 GMT 41.982204 12.156500 2,625 170 183 -512
2022-08-09 09:09:53 GMT 41.985031 12.155873 2,650 172 183 -576
2022-08-09 09:09:47 GMT 41.990524 12.155124 2,725 178 189 -512
2022-08-09 09:09:43 GMT 41.993454 12.154999 2,750 181 190 -576
2022-08-09 09:09:35 GMT 42.000126 12.154584 2,800 163 201 -768
2022-08-09 09:09:32 GMT 42.003620 12.153370 2,875 160 202 -832
2022-08-09 09:09:27 GMT 42.007782 12.150692 2,950 147 207 -960
2022-08-09 09:09:24 GMT 42.012451 12.145511 3,000 142 210 -1024
2022-08-09 09:09:21 GMT 42.012451 12.145511 3,200 128 215 -1024
2022-08-09 09:09:15 GMT 42.015564 12.140080 3,200 124 220 -1024
2022-08-09 09:09:12 GMT 42.017578 12.136085 3,200 123 224 -1088
2022-08-09 09:09:07 GMT 42.020332 12.130439 3,300 122 232 -1344
2022-08-09 09:09:05 GMT 42.021774 12.127373 3,400 122 232 -1344
2022-08-09 09:09:02 GMT 42.023170 12.124499 3,400 122 235 -1344
2022-08-09 09:09:01 GMT 42.023758 12.123226 3,425 122 235 -1344
2022-08-09 09:08:59 GMT 42.025639 12.119261 3,500 122 236 -1536
2022-08-09 09:08:58 GMT 42.025639 12.119261 3,500 122 236 -1536
2022-08-09 09:08:57 GMT 42.026196 12.118048 3,525 121 238 -1600
2022-08-09 09:08:55 GMT 42.027454 12.115237 3,575 121 239 -1472
2022-08-09 09:08:54 GMT 42.028015 12.113987 3,600 120 241 -1408
2022-08-09 09:08:52 GMT 42.029083 12.111469 3,625 117 244 -1216
2022-08-09 09:08:50 GMT 42.030121 12.108806 3,675 114 246 -1152
2022-08-09 09:08:48 GMT 42.030991 12.106309 3,700 107 249 -1408
2022-08-09 09:08:45 GMT 42.033142 12.097570 3,875 105 249 -1600
2022-08-09 09:08:42 GMT 42.033142 12.097570 3,900 96 251 -1408
2022-08-09 09:08:37 GMT 42.034103 12.090017 4,000 89 254 -1344
2022-08-09 09:08:34 GMT 42.034286 12.083463 4,075 85 254 -1600
2022-08-09 09:08:31 GMT 42.034103 12.080591 4,125 85 254 -1600
2022-08-09 09:08:30 GMT 42.034012 12.079343 4,150 81 255 -1536
2022-08-09 09:08:29 GMT 42.033783 12.077033 4,200 71 259 -960
2022-08-09 09:08:26 GMT 42.033180 12.073144 4,250 71 259 -960
2022-08-09 09:08:24 GMT 42.031734 12.067012 4,325 69 259 -832
2022-08-09 09:08:23 GMT 42.031734 12.067012 4,325 67 260 -832
2022-08-09 09:08:22 GMT 42.031364 12.065799 4,325 65 261 -832
2022-08-09 09:08:21 GMT 42.024429 12.050788 4,400 61 261 -896
2022-08-09 09:08:11 GMT 42.024429 12.050788 4,625 51 264 -768
2022-08-09 09:08:05 GMT 42.018703 12.042932 4,625 40 264 -1152
2022-08-09 09:08:02 GMT 42.016296 12.040079 4,675 38 264 -1024
2022-08-09 09:07:54 GMT 42.008926 12.032464 4,850 37 264 -1088
2022-08-09 09:07:51 GMT 42.006367 12.029902 4,850 37 264 -1088
2022-08-09 09:07:44 GMT 41.999313 12.022601 4,975 37 264 -1088
2022-08-09 09:07:41 GMT 41.996403 12.019618 5,025 37 264 -1088
2022-08-09 09:07:32 GMT 41.987640 12.010429 5,225 38 264 -1088
2022-08-09 09:07:28 GMT 41.981739 12.004224 5,300 38 264 -1152
2022-08-09 09:07:25 GMT 41.980762 12.003266 5,325 38 264 -1152
2022-08-09 09:07:21 GMT 41.976929 11.999193 5,475 38 264 -1152
2022-08-09 09:07:13 GMT 41.965897 11.987520 5,625 38 264 -1152
2022-08-09 09:07:09 GMT 41.965897 11.987520 5,625 38 264 -1152
2022-08-09 09:07:04 GMT 41.957153 11.978344 5,750 37 263 -1152
2022-08-09 09:07:01 GMT 41.957153 11.978344 5,800 37 263 -1088
2022-08-09 09:06:53 GMT 41.950085 11.971010 5,950 38 264 -1088
2022-08-09 09:06:50 GMT 41.947617 11.968391 5,975 38 264 -1088
2022-08-09 09:06:43 GMT 41.940216 11.960598 6,125 37 264 -1088
2022-08-09 09:06:40 GMT 41.937702 11.957979 6,175 37 264 -1088
2022-08-09 09:06:35 GMT 41.932846 11.953000 6,250 37 265 -896
2022-08-09 09:06:30 GMT 41.927948 11.948069 6,325 37 265 -960
2022-08-09 09:06:22 GMT 41.919777 11.939839 6,450 37 267 -832
2022-08-09 09:06:19 GMT 41.917511 11.937519 6,475 37 267 -832
2022-08-09 09:06:15 GMT 41.912285 11.932238 6,550 37 268 -1024
2022-08-09 09:06:12 GMT 41.910141 11.930003 6,600 37 268 -1024
2022-08-09 09:06:09 GMT 41.907394 11.927220 6,650 37 268 -1024
2022-08-09 09:06:02 GMT 41.899948 11.919655 6,775 36 269 -960
2022-08-09 09:05:58 GMT 41.896957 11.916608 6,825 36 269 -960
2022-08-09 09:05:51 GMT 41.889771 11.909367 6,925 37 270 -960
2022-08-09 09:05:48 GMT 41.886868 11.906433 6,975 36 271 -960
2022-08-09 09:05:42 GMT 41.879463 11.898960 7,100 36 272 -896
2022-08-09 09:05:38 GMT 41.876404 11.895946 7,125 36 272 -832
2022-08-09 09:05:31 GMT 41.869171 11.888580 7,225 37 274 -704
2022-08-09 09:05:28 GMT 41.865917 11.885227 7,250 37 276 -704
2022-08-09 09:05:24 GMT 41.861984 11.881152 7,300 37 276 -704
2022-08-09 09:05:18 GMT 41.855770 11.874815 7,375 37 279 -832
2022-08-09 09:05:10 GMT 41.847946 11.866767 7,500 37 280 -896
2022-08-09 09:05:07 GMT 41.844734 11.863510 7,550 37 281 -960
2022-08-09 09:05:00 GMT 41.837940 11.856484 7,700 37 282 -960
2022-08-09 09:04:57 GMT 41.834427 11.852875 7,700 37 282 -896
2022-08-09 09:04:49 GMT 41.826721 11.844795 7,800 38 283 -768
2022-08-09 09:04:46 GMT 41.823715 11.841639 7,850 38 284 -768
2022-08-09 09:04:39 GMT 41.816154 11.833681 8,000 38 285 -1152
2022-08-09 09:04:36 GMT 41.813126 11.830487 8,025 38 285 -1152
2022-08-09 09:04:32 GMT 41.808472 11.825569 8,125 38 285 -1088
2022-08-09 09:04:29 GMT 41.806049 11.823014 8,175 37 287 -896
2022-08-09 09:04:26 GMT 41.802189 11.818990 8,200 37 287 -832
2022-08-09 09:04:22 GMT 41.798172 11.814860 8,250 37 288 -576
2022-08-09 09:04:18 GMT 41.794464 11.811052 8,300 37 290 -512
2022-08-09 09:04:15 GMT 41.791168 11.807681 8,325 37 291 -512
2022-08-09 09:04:10 GMT 41.784729 11.801041 8,400 37 293 -832
2022-08-09 09:04:07 GMT 41.782608 11.798817 8,425 37 295 -896
2022-08-09 09:04:03 GMT 41.777000 11.792993 8,500 38 294 -1216
2022-08-09 09:03:57 GMT 41.771210 11.786645 8,625 39 294 -1280
2022-08-09 09:03:53 GMT 41.767319 11.782275 8,700 40 295 -960
2022-08-09 09:03:52 GMT 41.766201 11.780985 8,725 40 295 -960
2022-08-09 09:03:48 GMT 41.761688 11.775875 8,775 39 296 -1024
2022-08-09 09:03:45 GMT 41.758530 11.772412 8,850 39 296 -1088
2022-08-09 09:03:42 GMT 41.755234 11.768792 8,900 38 296 -1216
2022-08-09 09:03:39 GMT 41.752048 11.765335 8,975 38 295 -1216
2022-08-09 09:03:35 GMT 41.747860 11.760864 9,025 38 296 -1088
2022-08-09 09:03:27 GMT 41.739532 11.752188 9,275 37 295 -1664
2022-08-09 09:03:21 GMT 41.732941 11.745321 9,350 37 293 -1856
2022-08-09 09:03:18 GMT 41.729645 11.741888 9,575 39 292 -1664
2022-08-09 09:03:12 GMT 41.723003 11.734676 9,625 40 292 -1600
2022-08-09 09:03:07 GMT 41.718674 11.729502 9,725 44 292 -1408
2022-08-09 09:03:04 GMT 41.715599 11.725223 9,800 49 292 -1152
2022-08-09 09:02:56 GMT 41.708496 11.712175 9,900 60 296 -448
2022-08-09 09:02:51 GMT 41.705704 11.704996 9,925 65 298 -256
2022-08-09 09:02:50 GMT 41.705173 11.703442 9,925 68 298 -192
2022-08-09 09:02:47 GMT 41.703598 11.698380 9,950 70 298 -128
2022-08-09 09:02:45 GMT 41.702637 11.694884 9,950 72 299 -64
2022-08-09 09:02:44 GMT 41.701496 11.690347 9,950 72 299 -64
2022-08-09 09:02:40 GMT 41.700485 11.685895 9,950 73 299 -64
2022-08-09 09:02:38 GMT 41.700073 11.683960 9,950 73 299 -128
2022-08-09 09:02:36 GMT 41.698151 11.675283 9,950 73 299 -128
2022-08-09 09:02:33 GMT 41.698151 11.675283 9,950 73 299 -128
2022-08-09 09:02:32 GMT 41.697189 11.671039 9,975 73 299 -64
2022-08-09 09:02:31 GMT 41.697189 11.671039 9,975 73 298 -64
2022-08-09 09:02:27 GMT 41.695675 11.663904 9,975 74 298 -64
2022-08-09 09:02:24 GMT 41.694717 11.659303 9,975 74 298 -64
2022-08-09 09:02:22 GMT 41.693985 11.655558 9,975 75 298 -64
2022-08-09 09:02:16 GMT 41.691925 11.645008 9,975 75 298 -64
2022-08-09 09:02:13 GMT 41.690918 11.639453 9,975 75 298 0
2022-08-09 09:02:11 GMT 41.689903 11.634074 9,975 75 298 64
2022-08-09 09:02:10 GMT 41.689590 11.632462 9,975 76 298 64
2022-08-09 09:02:09 GMT 41.689316 11.631088 9,975 76 298 128
2022-08-09 09:02:08 GMT 41.688950 11.629091 9,975 76 298 128
2022-08-09 09:02:05 GMT 41.688034 11.624097 9,975 75 298 128
2022-08-09 09:02:02 GMT 41.686970 11.618745 9,975 74 298 128
2022-08-09 09:01:57 GMT 41.685387 11.611080 9,950 74 298 64
2022-08-09 09:01:55 GMT 41.684692 11.608117 9,950 72 298 -64
2022-08-09 09:01:52 GMT 41.683456 11.602624 9,975 72 298 -64
2022-08-09 09:01:51 GMT 41.682549 11.598752 9,975 72 299 -64
2022-08-09 09:01:48 GMT 41.681351 11.593822 9,975 71 298 0
2022-08-09 09:01:46 GMT 41.680573 11.590701 9,975 71 298 0
2022-08-09 09:01:44 GMT 41.679569 11.586488 9,975 71 298 -128
2022-08-09 09:01:40 GMT 41.677940 11.579973 9,975 71 298 -128
2022-08-09 09:01:39 GMT 41.677521 11.578248 9,975 71 298 -128
2022-08-09 09:01:37 GMT 41.676270 11.572973 9,975 72 298 -192
2022-08-09 09:01:35 GMT 41.675812 11.571225 9,975 72 298 -192
2022-08-09 09:01:33 GMT 41.674911 11.567390 10,000 72 298 -128
2022-08-09 09:01:31 GMT 41.674026 11.563672 10,000 73 298 -64
2022-08-09 09:01:30 GMT 41.673706 11.562236 10,000 73 298 -64
2022-08-09 09:01:27 GMT 41.672607 11.557118 10,000 74 298 -64
2022-08-09 09:01:26 GMT 41.671841 11.553593 10,000 74 298 -64
2022-08-09 09:01:24 GMT 41.671467 11.551805 10,000 74 298 -64
2022-08-09 09:01:23 GMT 41.671097 11.550251 10,000 74 298 -64
2022-08-09 09:01:21 GMT 41.670410 11.546881 10,000 74 297 0
2022-08-09 09:01:20 GMT 41.670044 11.545133 10,000 74 297 0
2022-08-09 09:01:17 GMT 41.668991 11.540326 10,000 74 297 0
2022-08-09 09:01:14 GMT 41.667801 11.534708 10,000 74 296 0
2022-08-09 09:01:13 GMT 41.667419 11.532898 10,000 74 296 0
2022-08-09 09:01:10 GMT 41.666336 11.527592 10,000 74 297 0
2022-08-09 09:01:06 GMT 41.664093 11.516855 10,000 74 296 64
2022-08-09 09:01:02 GMT 41.662949 11.511362 10,000 74 296 64
2022-08-09 09:00:59 GMT 41.661438 11.504121 10,000 74 297 64
2022-08-09 09:00:54 GMT 41.660343 11.499172 9,975 73 297 128
2022-08-09 09:00:52 GMT 41.659599 11.495659 9,975 73 297 128
2022-08-09 09:00:51 GMT 41.659180 11.493679 9,975 73 297 128
2022-08-09 09:00:49 GMT 41.658463 11.490326 9,975 73 298 -64
2022-08-09 09:00:47 GMT 41.657684 11.486830 9,975 73 298 -64
2022-08-09 09:00:44 GMT 41.656479 11.481543 9,975 73 298 -64
2022-08-09 09:00:41 GMT 41.655361 11.476433 9,975 73 298 0
2022-08-09 09:00:39 GMT 41.654663 11.473240 9,975 73 298 0
2022-08-09 09:00:35 GMT 41.652740 11.464608 9,975 74 298 0
2022-08-09 09:00:29 GMT 41.650681 11.454870 10,000 73 297 0
2022-08-09 09:00:25 GMT 41.648983 11.447115 10,000 73 297 0
2022-08-09 09:00:19 GMT 41.646656 11.436512 10,000 73 297 64
2022-08-09 09:00:16 GMT 41.645691 11.432086 10,000 73 297 64
2022-08-09 09:00:15 GMT 41.644958 11.428715 9,975 73 297 64
2022-08-09 09:00:14 GMT 41.644608 11.427186 9,975 72 298 64
2022-08-09 09:00:12 GMT 41.644226 11.425594 9,975 72 297 0
2022-08-09 09:00:09 GMT 41.642979 11.420352 9,975 71 297 64
2022-08-09 09:00:07 GMT 41.641571 11.414732 9,975 70 297 64
2022-08-09 09:00:04 GMT 41.639328 11.406618 9,975 69 298 64
2022-08-09 09:00:01 GMT 41.639328 11.406618 9,975 68 297 64
2022-08-09 08:59:59 GMT 41.638321 11.403247 9,975 68 297 64
2022-08-09 08:59:58 GMT 41.637772 11.401312 9,975 68 297 64
2022-08-09 08:59:57 GMT 41.637344 11.399785 9,975 68 298 64
2022-08-09 08:59:55 GMT 41.636169 11.396068 9,975 67 298 0
2022-08-09 08:59:54 GMT 41.635578 11.394164 9,975 66 297 -64
2022-08-09 08:59:53 GMT 41.634567 11.390950 9,975 66 297 -64
2022-08-09 08:59:51 GMT 41.633945 11.389118 9,975 66 297 -64
2022-08-09 08:59:48 GMT 41.632141 11.383771 9,975 65 296 0
2022-08-09 08:59:42 GMT 41.628502 11.373724 9,975 62 296 0
2022-08-09 08:59:37 GMT 41.622849 11.358865 9,975 63 296 0
2022-08-09 08:59:34 GMT 41.622849 11.358865 9,975 63 296 -64
2022-08-09 08:59:30 GMT 41.621380 11.354945 9,975 63 295 0
2022-08-09 08:59:27 GMT 41.619656 11.350218 9,975 63 295 0
2022-08-09 08:59:26 GMT 41.618134 11.346130 9,975 63 294 -64
2022-08-09 08:59:24 GMT 41.617538 11.344507 10,000 63 294 -64
2022-08-09 08:59:23 GMT 41.616909 11.342873 10,000 63 294 -64
2022-08-09 08:59:20 GMT 41.615158 11.338140 10,000 63 293 0
2022-08-09 08:59:17 GMT 41.613136 11.332653 10,000 63 292 0
2022-08-09 08:59:16 GMT 41.611881 11.329204 10,000 64 292 0
2022-08-09 08:59:13 GMT 41.611221 11.327404 10,000 64 292 0
2022-08-09 08:59:12 GMT 41.610344 11.324988 10,000 64 293 -64
2022-08-09 08:59:11 GMT 41.609463 11.322561 10,000 64 292 -192
2022-08-09 08:59:06 GMT 41.607056 11.316043 10,025 63 292 -512
2022-08-09 08:59:00 GMT 41.603268 11.306081 10,075 62 293 -576
2022-08-09 08:58:56 GMT 41.600739 11.299501 10,125 62 293 -640
2022-08-09 08:58:49 GMT 41.596378 11.288197 10,200 62 294 -640
2022-08-09 08:58:46 GMT 41.594471 11.283214 10,225 62 294 -704
2022-08-09 08:58:43 GMT 41.591770 11.276252 10,275 62 295 -704
2022-08-09 08:58:39 GMT 41.589981 11.271723 10,325 62 295 -704
2022-08-09 08:58:35 GMT 41.587486 11.265266 10,350 62 296 -704
2022-08-09 08:58:30 GMT 41.583858 11.256004 10,425 62 297 -768
2022-08-09 08:58:25 GMT 41.581467 11.249813 10,475 63 297 -832
2022-08-09 08:58:22 GMT 41.579041 11.243383 10,550 63 297 -832
2022-08-09 08:58:19 GMT 41.577526 11.239461 10,575 63 298 -768
2022-08-09 08:58:15 GMT 41.574825 11.232435 10,625 62 298 -832
2022-08-09 08:58:11 GMT 41.572639 11.226686 10,675 62 299 -896
2022-08-09 08:58:08 GMT 41.570496 11.221257 10,725 62 300 -960
2022-08-09 08:58:04 GMT 41.568054 11.215044 10,800 62 299 -1088
2022-08-09 08:58:01 GMT 41.565609 11.208865 10,850 62 299 -1088
2022-08-09 08:57:57 GMT 41.563934 11.204586 10,900 62 299 -1088
2022-08-09 08:57:52 GMT 41.560303 11.195452 11,000 61 299 -1088
2022-08-09 08:57:48 GMT 41.557510 11.188489 11,075 62 298 -1152
2022-08-09 08:57:44 GMT 41.555099 11.182459 11,150 62 298 -1088
2022-08-09 08:57:38 GMT 41.550713 11.171563 11,275 61 299 -896
2022-08-09 08:57:34 GMT 41.548233 11.165355 11,325 62 299 -832
2022-08-09 08:57:29 GMT 41.545128 11.157510 11,375 62 300 -768
2022-08-09 08:57:26 GMT 41.543472 11.153245 11,425 63 300 -768
2022-08-09 08:57:22 GMT 41.541046 11.146816 11,475 63 301 -832
2022-08-09 08:57:19 GMT 41.538841 11.140775 11,525 64 301 -896
2022-08-09 08:57:15 GMT 41.536606 11.134580 11,575 64 301 -960
2022-08-09 08:57:13 GMT 41.535397 11.131258 11,625 64 301 -1024
2022-08-09 08:57:09 GMT 41.533207 11.124999 11,675 64 301 -1088
2022-08-09 08:57:06 GMT 41.531158 11.119350 11,750 64 301 -1088
2022-08-09 08:57:00 GMT 41.527267 11.108613 11,875 63 300 -1152
2022-08-09 08:56:56 GMT 41.525299 11.103308 11,925 63 300 -1152
2022-08-09 08:56:53 GMT 41.523148 11.097502 12,000 63 300 -1152
2022-08-09 08:56:46 GMT 41.518616 11.085580 12,125 62 300 -1152
2022-08-09 08:56:43 GMT 41.516590 11.080287 12,200 62 300 -1088
2022-08-09 08:56:40 GMT 41.511978 11.068226 12,300 63 303 -960
2022-08-09 08:56:36 GMT 41.511978 11.068226 12,325 63 302 -1152
2022-08-09 08:56:31 GMT 41.509506 11.061734 12,450 63 302 -1088
2022-08-09 08:56:25 GMT 41.505753 11.051747 12,500 63 303 -1088
2022-08-09 08:56:21 GMT 41.503136 11.044709 12,575 63 303 -1024
2022-08-09 08:56:18 GMT 41.501221 11.039699 12,625 63 304 -960
2022-08-09 08:56:15 GMT 41.499161 11.034393 12,675 62 305 -960
2022-08-09 08:56:12 GMT 41.497055 11.028838 12,750 62 305 -1088
2022-08-09 08:56:05 GMT 41.492386 11.017227 12,875 61 306 -1152
2022-08-09 08:56:01 GMT 41.490101 11.011622 12,950 61 305 -1216
2022-08-09 08:55:54 GMT 41.485153 10.999562 13,075 61 305 -1152
2022-08-09 08:55:50 GMT 41.480278 10.987414 13,350 61 306 -1216
2022-08-09 08:55:47 GMT 41.478184 10.982304 13,350 61 306 -1216
2022-08-09 08:55:43 GMT 41.478184 10.982304 13,300 62 306 -1280
2022-08-09 08:55:38 GMT 41.474041 10.971765 13,450 62 305 -1536
2022-08-09 08:55:34 GMT 41.471806 10.965888 13,525 62 305 -1536
2022-08-09 08:55:30 GMT 41.469570 10.960012 13,625 63 305 -1600
2022-08-09 08:55:27 GMT 41.467617 10.954774 13,700 63 305 -1600
2022-08-09 08:55:24 GMT 41.465240 10.948375 13,800 63 304 -1472
2022-08-09 08:55:17 GMT 41.461426 10.938167 13,925 63 304 -1280
2022-08-09 08:55:13 GMT 41.458817 10.931077 14,025 63 305 -1024
2022-08-09 08:55:07 GMT 41.454987 10.920785 14,100 63 306 -832
2022-08-09 08:55:03 GMT 41.452255 10.913320 14,175 64 309 -832
2022-08-09 08:54:58 GMT 41.449127 10.904742 14,225 64 309 -896
2022-08-09 08:54:52 GMT 41.445736 10.895499 14,325 64 311 -896
2022-08-09 08:54:47 GMT 41.441803 10.884580 14,400 63 313 -960
2022-08-09 08:54:41 GMT 41.438782 10.876465 14,475 64 314 -960
2022-08-09 08:54:37 GMT 41.436100 10.869183 14,550 64 315 -1088
2022-08-09 08:54:31 GMT 41.432281 10.858708 14,650 64 316 -1024
2022-08-09 08:54:27 GMT 41.429626 10.851309 14,725 64 318 -768
2022-08-09 08:54:20 GMT 41.425346 10.839290 14,800 64 319 -704
2022-08-09 08:54:18 GMT 41.424042 10.835522 14,875 65 320 -896
2022-08-09 08:54:15 GMT 41.422276 10.830539 14,875 65 320 -896
2022-08-09 08:54:10 GMT 41.419434 10.822236 14,925 66 323 -512
2022-08-09 08:54:06 GMT 41.416176 10.812208 14,975 66 323 -320
2022-08-09 08:54:00 GMT 41.413010 10.802946 15,000 65 324 64
2022-08-09 08:53:53 GMT 41.408890 10.791134 15,000 64 326 -64
2022-08-09 08:53:49 GMT 41.405960 10.782956 15,000 64 328 -320
2022-08-09 08:53:46 GMT 41.403934 10.777332 15,025 64 330 -384
2022-08-09 08:53:39 GMT 41.399643 10.765353 15,075 64 334 -576
2022-08-09 08:53:36 GMT 41.397789 10.760150 15,175 64 335 -960
2022-08-09 08:53:33 GMT 41.395275 10.753060 15,175 64 335 -960
2022-08-09 08:53:29 GMT 41.392853 10.746162 15,225 65 336 -960
2022-08-09 08:53:26 GMT 41.391129 10.741258 15,300 65 338 -896
2022-08-09 08:53:23 GMT 41.389175 10.735559 15,300 65 338 -896
2022-08-09 08:53:19 GMT 41.386093 10.726868 15,375 64 340 -1088
2022-08-09 08:53:14 GMT 41.382473 10.716664 15,475 64 341 -1024
2022-08-09 08:53:08 GMT 41.378860 10.706360 15,575 65 343 -1344
2022-08-09 08:53:04 GMT 41.376469 10.699685 15,650 65 343 -1216
2022-08-09 08:52:58 GMT 41.372314 10.687805 15,775 64 344 -1152
2022-08-09 08:52:55 GMT 41.364761 10.666992 15,975 64 345 -1024
2022-08-09 08:52:47 GMT 41.364761 10.666992 15,975 64 347 -1152
2022-08-09 08:52:42 GMT 41.361153 10.656738 16,075 65 349 -1024
2022-08-09 08:52:37 GMT 41.357567 10.646376 16,150 65 350 -1088
2022-08-09 08:52:34 GMT 41.356064 10.641846 16,200 65 350 -1024
2022-08-09 08:52:25 GMT 41.349049 10.621345 16,400 65 352 -1344
2022-08-09 08:52:15 GMT 41.342949 10.603804 16,600 65 353 -1472
2022-08-09 08:52:13 GMT 41.341412 10.599497 16,675 65 353 -1536
2022-08-09 08:52:06 GMT 41.336929 10.586243 16,825 66 354 -1152
2022-08-09 08:52:03 GMT 41.334961 10.580444 16,875 65 356 -896
2022-08-09 08:51:55 GMT 41.329834 10.565308 17,000 65 358 -1024
2022-08-09 08:51:53 GMT 41.327866 10.559484 17,050 65 358 -960
2022-08-09 08:51:46 GMT 41.320541 10.537598 17,175 66 361 -960
2022-08-09 08:51:42 GMT 41.320541 10.537598 17,200 66 363 -1152
2022-08-09 08:51:36 GMT 41.316414 10.525152 17,325 66 364 -1216
2022-08-09 08:51:29 GMT 41.311752 10.511292 17,475 65 364 -1408
2022-08-09 08:51:25 GMT 41.308640 10.502056 17,600 65 365 -1536
2022-08-09 08:51:21 GMT 41.306080 10.494503 17,700 65 365 -1600
2022-08-09 08:51:16 GMT 41.299438 10.474670 18,300 66 366 -1216
2022-08-09 08:51:11 GMT 41.299438 10.474670 17,925 66 365 -1472
2022-08-09 08:51:06 GMT 41.295326 10.462105 18,075 66 365 -1344
2022-08-09 08:51:00 GMT 41.292068 10.451993 18,175 66 366 -1152
2022-08-09 08:50:55 GMT 41.288681 10.441650 18,275 66 368 -960
2022-08-09 08:50:51 GMT 41.285751 10.432678 18,325 66 370 -960
2022-08-09 08:50:43 GMT 41.280476 10.416600 18,475 66 371 -1024
2022-08-09 08:50:41 GMT 41.278755 10.411419 18,525 65 373 -960
2022-08-09 08:50:30 GMT 41.271423 10.389893 18,725 65 375 -1536
2022-08-09 08:50:24 GMT 41.266754 10.376526 18,900 65 374 -1664
2022-08-09 08:50:19 GMT 41.263393 10.366911 19,025 65 374 -1664
2022-08-09 08:50:13 GMT 41.258835 10.353760 19,200 65 375 -1728
2022-08-09 08:50:09 GMT 41.256088 10.345581 19,300 66 375 -1600
2022-08-09 08:49:59 GMT 41.249054 10.324027 19,550 67 376 -1472
2022-08-09 08:49:52 GMT 41.244396 10.309296 19,725 67 377 -1472
2022-08-09 08:49:43 GMT 41.237648 10.288447 19,950 66 377 -1344
2022-08-09 08:49:38 GMT 41.234985 10.280396 20,050 66 378 -1344
2022-08-09 08:49:31 GMT 41.229675 10.264160 20,200 66 380 -1152
2022-08-09 08:49:27 GMT 41.226654 10.254944 20,275 66 381 -960
2022-08-09 08:49:22 GMT 41.223358 10.245126 20,325 65 385 -896
2022-08-09 08:49:12 GMT 41.215443 10.222591 20,500 64 387 -960
2022-08-09 08:49:09 GMT 41.210220 10.208008 20,625 64 390 -1024
2022-08-09 08:49:01 GMT 41.207703 10.200806 20,675 65 391 -1216
2022-08-09 08:48:57 GMT 41.204365 10.191193 20,750 65 393 -1280
2022-08-09 08:48:50 GMT 41.199142 10.176086 20,900 65 394 -1280
2022-08-09 08:48:41 GMT 41.192398 10.155924 21,150 66 396 -1472
2022-08-09 08:48:31 GMT 41.184906 10.133118 21,375 66 398 -1216
2022-08-09 08:48:20 GMT 41.176712 10.107921 21,600 65 402 -1344
2022-08-09 08:48:11 GMT 41.169868 10.087634 21,800 65 405 -1664
2022-08-09 08:48:03 GMT 41.164188 10.070905 21,975 65 405 -1664
2022-08-09 08:47:53 GMT 41.156479 10.048035 22,325 66 404 -1984
2022-08-09 08:47:49 GMT 41.153870 10.040039 22,425 67 405 -1792
2022-08-09 08:47:40 GMT 41.146687 10.017346 22,700 66 407 -1216
2022-08-09 08:47:34 GMT 41.141922 10.002991 22,825 65 407 -1088
2022-08-09 08:47:27 GMT 41.136864 9.988445 22,950 64 409 -1216
2022-08-09 08:47:24 GMT 41.134689 9.982605 23,025 63 410 -1472
2022-08-09 08:47:19 GMT 41.130112 9.970764 23,175 57 409 -1792
2022-08-09 08:47:13 GMT 41.124893 9.958496 23,325 58 409 -1792
2022-08-09 08:47:08 GMT 41.119312 9.947246 23,500 54 408 -1920
2022-08-09 08:47:03 GMT 41.108231 9.929321 23,975 50 406 -1920
2022-08-09 08:46:59 GMT 41.108231 9.929321 23,800 45 406 -1920
2022-08-09 08:46:53 GMT 41.100273 9.919094 23,975 33 403 -1984
2022-08-09 08:46:48 GMT 41.093170 9.911865 24,150 34 403 -2048
2022-08-09 08:46:44 GMT 41.086578 9.906311 24,275 30 403 -1856
2022-08-09 08:46:37 GMT 41.075974 9.899119 24,475 23 403 -1664
2022-08-09 08:46:35 GMT 41.070831 9.896301 24,550 20 402 -1472
2022-08-09 08:46:33 GMT 41.067673 9.894714 24,600 19 403 -1408
2022-08-09 08:46:29 GMT 41.061634 9.892065 24,675 16 403 -1280
2022-08-09 08:46:26 GMT 41.056274 9.890076 24,725 13 404 -1152
2022-08-09 08:46:22 GMT 41.048553 9.887758 24,800 8 406 -1152
2022-08-09 08:46:18 GMT 41.040218 9.886072 24,900 4 408 -1024
2022-08-09 08:46:14 GMT 41.032864 9.885323 24,975 1 409 -1024
2022-08-09 08:46:11 GMT 41.028721 9.885136 25,000 359 410 -1088
2022-08-09 08:46:08 GMT 41.020935 9.885376 25,075 357 410 -1152
2022-08-09 08:46:04 GMT 41.014526 9.886108 25,150 353 412 -1280
2022-08-09 08:46:01 GMT 41.009590 9.886946 25,225 351 412 -1408
2022-08-09 08:45:57 GMT 41.001343 9.889160 25,325 347 414 -1664
2022-08-09 08:45:52 GMT 40.992691 9.892456 25,475 342 414 -1920
2022-08-09 08:45:49 GMT 40.986786 9.895447 25,575 337 414 -2048
2022-08-09 08:45:46 GMT 40.981384 9.898743 25,675 333 414 -2048
2022-08-09 08:45:43 GMT 40.975979 9.902614 25,775 330 414 -1664
2022-08-09 08:45:39 GMT 40.969849 9.907776 25,875 324 415 -1344
2022-08-09 08:45:35 GMT 40.965225 9.912290 25,950 319 417 -1216
2022-08-09 08:45:32 GMT 40.960754 9.917159 26,000 319 417 -1216
2022-08-09 08:45:30 GMT 40.956100 9.922964 26,175 313 419 -1216
2022-08-09 08:45:26 GMT 40.951447 9.929810 26,150 308 422 -832
2022-08-09 08:45:23 GMT 40.948002 9.935386 26,175 307 423 -832
2022-08-09 08:45:15 GMT 40.939110 9.953551 26,325 297 432 -1152
2022-08-09 08:45:12 GMT 40.936829 9.959356 26,375 297 432 -1152
2022-08-09 08:45:09 GMT 40.933804 9.968283 26,450 294 435 -1344
2022-08-09 08:45:05 GMT 40.931442 9.976746 26,550 287 437 -2304
2022-08-09 08:45:01 GMT 40.929016 9.987732 26,725 285 437 -2304
2022-08-09 08:44:59 GMT 40.927826 9.994263 26,975 280 439 -1856
2022-08-09 08:44:55 GMT 40.926308 10.005299 26,950 279 439 -1664
2022-08-09 08:44:52 GMT 40.925720 10.011169 27,000 277 440 -1600
2022-08-09 08:44:47 GMT 40.924816 10.024026 27,150 271 442 -1984
2022-08-09 08:44:43 GMT 40.924530 10.035828 27,300 270 442 -2048
2022-08-09 08:44:39 GMT 40.924576 10.046387 27,425 269 442 -1856
2022-08-09 08:44:35 GMT 40.924850 10.056885 27,550 268 441 -1856
2022-08-09 08:44:33 GMT 40.925003 10.063851 27,625 269 440 -1856
2022-08-09 08:44:28 GMT 40.925354 10.076721 27,750 269 437 -1408
2022-08-09 08:44:25 GMT 40.925537 10.084473 27,825 269 437 -1472
2022-08-09 08:44:23 GMT 40.925674 10.091431 27,900 268 437 -1216
2022-08-09 08:44:17 GMT 40.926224 10.105225 27,950 266 437 -640
2022-08-09 08:44:14 GMT 40.927048 10.117737 28,000 265 437 -448
2022-08-09 08:44:12 GMT 40.927048 10.117737 28,000 264 437 -320
2022-08-09 08:44:07 GMT 40.928421 10.131775 28,025 262 438 -320
2022-08-09 08:44:03 GMT 40.929520 10.140808 28,075 260 440 -256
2022-08-09 08:44:01 GMT 40.930161 10.145569 28,050 259 440 -256
2022-08-09 08:43:58 GMT 40.931671 10.155273 28,100 257 442 -320
2022-08-09 08:43:52 GMT 40.934547 10.171592 28,100 256 442 -256
2022-08-09 08:43:47 GMT 40.936890 10.183105 28,050 253 447 768
2022-08-09 08:43:44 GMT 40.941158 10.201055 28,000 251 449 512
2022-08-09 08:43:37 GMT 40.943531 10.209607 28,000 250 452 -64
2022-08-09 08:43:32 GMT 40.947693 10.224304 28,000 250 453 -64
2022-08-09 08:43:27 GMT 40.951492 10.237549 28,025 250 453 -128
2022-08-09 08:43:22 GMT 40.955475 10.251282 28,000 250 456 448
2022-08-09 08:43:16 GMT 40.959545 10.265350 27,975 250 457 128
2022-08-09 08:43:12 GMT 40.962250 10.274780 27,975 250 458 -192
2022-08-09 08:43:10 GMT 40.963875 10.280519 27,975 250 458 -256
2022-08-09 08:43:05 GMT 40.967598 10.293378 28,025 249 461 -192
2022-08-09 08:43:01 GMT 40.970947 10.304871 28,025 249 460 -192
2022-08-09 08:42:56 GMT 40.977562 10.327523 28,050 249 462 -192
2022-08-09 08:42:53 GMT 40.977562 10.327523 28,075 249 462 -192
2022-08-09 08:42:51 GMT 40.982346 10.343933 28,100 250 467 -64
2022-08-09 08:42:47 GMT 40.982346 10.343933 28,100 250 464 -384
2022-08-09 08:42:42 GMT 40.985321 10.354248 28,125 250 464 -512
2022-08-09 08:42:40 GMT 40.986965 10.360107 28,150 250 464 -704
2022-08-09 08:42:38 GMT 40.988033 10.363790 28,175 250 463 -640
2022-08-09 08:42:35 GMT 40.990643 10.373091 28,200 250 464 -384
2022-08-09 08:42:31 GMT 40.993927 10.384827 28,225 250 465 -256
2022-08-09 08:42:28 GMT 40.995392 10.390137 28,225 250 465 -256
2022-08-09 08:42:25 GMT 40.998089 10.399746 28,250 250 465 -64
2022-08-09 08:42:21 GMT 41.000748 10.409363 28,250 250 466 0
2022-08-09 08:42:19 GMT 41.002625 10.416077 28,225 250 467 -256
2022-08-09 08:42:16 GMT 41.008099 10.435638 28,250 250 468 -128
2022-08-09 08:42:12 GMT 41.008099 10.435638 28,250 250 468 -64
2022-08-09 08:42:09 GMT 41.010101 10.442879 28,275 250 470 64
2022-08-09 08:42:06 GMT 41.012474 10.451182 28,250 250 470 64
2022-08-09 08:42:00 GMT 41.016804 10.466600 28,250 250 472 64
2022-08-09 08:41:53 GMT 41.021832 10.484453 28,250 250 473 64
2022-08-09 08:41:50 GMT 41.024487 10.493941 28,250 250 475 64
2022-08-09 08:41:46 GMT 41.027847 10.505920 28,225 250 475 64
2022-08-09 08:41:43 GMT 41.029514 10.511919 28,225 250 475 128
2022-08-09 08:41:40 GMT 41.032074 10.521219 28,225 251 476 128
2022-08-09 08:41:36 GMT 41.035492 10.533508 28,200 250 478 192
2022-08-09 08:41:30 GMT 41.039658 10.548584 28,200 250 478 192
2022-08-09 08:41:23 GMT 41.044968 10.567871 28,150 250 479 320
2022-08-09 08:41:20 GMT 41.046879 10.574715 28,075 250 479 512
2022-08-09 08:41:14 GMT 41.051857 10.592318 28,075 250 480 896
2022-08-09 08:41:10 GMT 41.055542 10.605530 28,000 250 479 1216
2022-08-09 08:41:07 GMT 41.057098 10.611023 27,950 250 479 1216
2022-08-09 08:41:00 GMT 41.063690 10.634277 27,725 250 478 1280
2022-08-09 08:40:56 GMT 41.065311 10.640009 27,725 250 478 1280
2022-08-09 08:40:50 GMT 41.071060 10.660278 27,575 250 476 960
2022-08-09 08:40:47 GMT 41.073040 10.667350 27,550 250 474 896
2022-08-09 08:40:39 GMT 41.078751 10.687439 27,425 250 472 1024
2022-08-09 08:40:37 GMT 41.080582 10.693942 27,400 250 472 1024
2022-08-09 08:40:31 GMT 41.084866 10.709111 27,300 250 471 1152
2022-08-09 08:40:27 GMT 41.088261 10.721221 27,200 250 470 1216
2022-08-09 08:40:21 GMT 41.092590 10.736576 27,075 250 468 1280
2022-08-09 08:40:18 GMT 41.094780 10.744379 27,025 250 468 1280
2022-08-09 08:40:16 GMT 41.096237 10.749451 26,975 250 468 1280
2022-08-09 08:40:11 GMT 41.100552 10.764729 26,850 250 467 1344
2022-08-09 08:40:06 GMT 41.103764 10.776277 26,750 250 466 1408
2022-08-09 08:39:58 GMT 41.110153 10.798950 26,550 250 465 1408
2022-08-09 08:39:55 GMT 41.112282 10.806427 26,500 250 465 1472
2022-08-09 08:39:50 GMT 41.116241 10.820534 26,350 250 464 1472
2022-08-09 08:39:47 GMT 41.118053 10.826964 26,300 250 463 1472
2022-08-09 08:39:45 GMT 41.119812 10.833313 26,250 250 463 1472
2022-08-09 08:39:38 GMT 41.125412 10.853244 26,050 250 462 1472
2022-08-09 08:39:33 GMT 41.128235 10.863342 25,975 250 461 1472
2022-08-09 08:39:28 GMT 41.133278 10.881334 25,775 250 461 1472
2022-08-09 08:39:25 GMT 41.134861 10.886889 25,750 250 460 1472
2022-08-09 08:39:17 GMT 41.140686 10.907776 25,550 250 459 1472
2022-08-09 08:39:15 GMT 41.142151 10.913086 25,350 250 458 1536
2022-08-09 08:39:06 GMT 41.148594 10.935953 25,275 250 458 1536
2022-08-09 08:39:03 GMT 41.151012 10.944630 25,200 250 457 1600
2022-08-09 08:38:57 GMT 41.157394 10.967468 25,000 250 456 1536
2022-08-09 08:38:54 GMT 41.157394 10.967468 24,825 250 455 1536
2022-08-09 08:38:48 GMT 41.161926 10.983704 24,800 250 455 1536
2022-08-09 08:38:45 GMT 41.163574 10.989685 24,750 250 454 1472
2022-08-09 08:38:43 GMT 41.171265 11.017334 24,675 250 454 1472
2022-08-09 08:38:35 GMT 41.171265 11.017334 24,500 250 453 1472
2022-08-09 08:38:26 GMT 41.178200 11.042196 24,250 250 449 1408
2022-08-09 08:38:17 GMT 41.184128 11.063416 24,075 250 448 1408
2022-08-09 08:38:14 GMT 41.185684 11.069031 24,025 250 447 1344
2022-08-09 08:38:05 GMT 41.192505 11.093445 23,775 250 444 1344
2022-08-09 08:37:55 GMT 41.199986 11.120411 23,575 250 441 1408
2022-08-09 08:37:45 GMT 41.207474 11.147217 23,300 250 438 1536
2022-08-09 08:37:41 GMT 41.209900 11.156067 23,100 250 437 1536
2022-08-09 08:37:34 GMT 41.214371 11.172097 23,050 250 435 1600
2022-08-09 08:37:29 GMT 41.218098 11.185643 22,925 250 435 1600
2022-08-09 08:37:24 GMT 41.221573 11.198120 22,775 250 433 1536
2022-08-09 08:37:14 GMT 41.229218 11.225708 22,450 250 430 1664
2022-08-09 08:37:11 GMT 41.230316 11.229675 22,450 250 430 1664
2022-08-09 08:37:03 GMT 41.235764 11.249451 22,225 250 428 1600
2022-08-09 08:36:52 GMT 41.243408 11.277222 21,900 250 425 1920
2022-08-09 08:36:43 GMT 41.249844 11.300500 21,550 250 424 2176
2022-08-09 08:36:32 GMT 41.256592 11.324890 21,200 250 423 2176
2022-08-09 08:36:22 GMT 41.263779 11.351013 20,825 250 423 2240
2022-08-09 08:36:17 GMT 41.267254 11.363671 20,625 250 422 2112
2022-08-09 08:36:13 GMT 41.269547 11.371948 20,525 250 422 2048
2022-08-09 08:36:10 GMT 41.271027 11.377279 20,450 250 421 2048
2022-08-09 08:36:06 GMT 41.274582 11.390198 20,275 251 419 2112
2022-08-09 08:36:01 GMT 41.277775 11.401811 20,100 250 420 2048
2022-08-09 08:35:51 GMT 41.284527 11.426468 19,750 251 418 2048
2022-08-09 08:35:41 GMT 41.291229 11.450813 19,400 250 416 2112
2022-08-09 08:35:37 GMT 41.293488 11.458984 19,275 250 416 2176
2022-08-09 08:35:32 GMT 41.296967 11.471680 18,975 250 415 2176
2022-08-09 08:35:28 GMT 41.299332 11.480276 18,950 250 415 2112
2022-08-09 08:35:22 GMT 41.303467 11.495300 18,700 251 413 2048
2022-08-09 08:35:19 GMT 41.305344 11.502258 18,625 251 412 1984
2022-08-09 08:35:15 GMT 41.307800 11.511300 18,500 251 412 1920
2022-08-09 08:35:10 GMT 41.311295 11.524109 18,325 251 410 1920
2022-08-09 08:35:07 GMT 41.313446 11.531921 18,225 251 410 1920
2022-08-09 08:34:59 GMT 41.318573 11.550781 17,975 251 407 1984
2022-08-09 08:34:57 GMT 41.319534 11.554309 17,675 251 404 1920
2022-08-09 08:34:52 GMT 41.324936 11.574219 17,700 251 404 1920
2022-08-09 08:34:48 GMT 41.324936 11.574219 17,625 251 404 1920
2022-08-09 08:34:41 GMT 41.329880 11.592407 17,400 251 401 1792
2022-08-09 08:34:38 GMT 41.331436 11.598206 17,325 251 401 1728
2022-08-09 08:34:35 GMT 41.333172 11.604746 17,250 251 397 1856
2022-08-09 08:34:30 GMT 41.336655 11.617615 17,025 251 397 1856
2022-08-09 08:34:27 GMT 41.338528 11.624534 16,975 251 396 1856
2022-08-09 08:34:19 GMT 41.343613 11.643494 16,700 251 394 2112
2022-08-09 08:34:15 GMT 41.345535 11.650574 16,600 251 392 2112
2022-08-09 08:34:11 GMT 41.348511 11.661682 16,425 251 391 2112
2022-08-09 08:34:08 GMT 41.349838 11.666482 16,350 251 390 2240
2022-08-09 08:34:04 GMT 41.352631 11.676844 16,175 251 390 2496
2022-08-09 08:33:59 GMT 41.355698 11.688171 15,900 251 390 2496
2022-08-09 08:33:56 GMT 41.357334 11.694010 15,850 251 389 2496
2022-08-09 08:33:49 GMT 41.361988 11.711114 15,400 250 388 2368
2022-08-09 08:33:45 GMT 41.364487 11.720093 15,375 250 388 2432
2022-08-09 08:33:38 GMT 41.368881 11.736206 15,125 251 387 2112
2022-08-09 08:33:36 GMT 41.369808 11.739578 15,050 251 387 1984
2022-08-09 08:33:29 GMT 41.374237 11.755371 14,825 248 385 1856
2022-08-09 08:33:26 GMT 41.376514 11.762300 14,725 244 384 1920
2022-08-09 08:33:20 GMT 41.382294 11.776917 14,500 240 382 2176
2022-08-09 08:33:16 GMT 41.388103 11.788969 14,250 237 382 2432
2022-08-09 08:33:05 GMT 41.395981 11.802562 13,950 228 382 2560
2022-08-09 08:32:59 GMT 41.403580 11.813424 13,650 224 383 2432
2022-08-09 08:32:56 GMT 41.407333 11.818043 13,550 221 383 2368
2022-08-09 08:32:52 GMT 41.412048 11.823411 13,400 219 382 2240
2022-08-09 08:32:49 GMT 41.417339 11.829018 13,275 219 381 2176
2022-08-09 08:32:44 GMT 41.423126 11.835147 13,125 219 379 2240
2022-08-09 08:32:36 GMT 41.437225 11.850066 12,725 219 377 2560
2022-08-09 08:32:29 GMT 41.445557 11.858867 12,450 219 375 2560
2022-08-09 08:32:24 GMT 41.450043 11.863611 12,325 219 375 2368
2022-08-09 08:32:22 GMT 41.454674 11.868492 12,300 219 375 2304
2022-08-09 08:32:18 GMT 41.459839 11.873911 12,100 219 372 1408
2022-08-09 08:32:13 GMT 41.465755 11.880117 12,025 219 365 768
2022-08-09 08:32:08 GMT 41.473343 11.888037 11,950 219 361 832
2022-08-09 08:32:04 GMT 41.478184 11.893147 11,875 219 358 832
2022-08-09 08:31:58 GMT 41.486050 11.901451 11,800 219 350 896
2022-08-09 08:31:53 GMT 41.492615 11.908413 11,700 219 347 1088
2022-08-09 08:31:47 GMT 41.498993 11.915120 11,575 219 342 1664
2022-08-09 08:31:44 GMT 41.503418 11.919854 11,475 219 339 1536
2022-08-09 08:31:41 GMT 41.506393 11.922975 11,400 219 338 1472
2022-08-09 08:31:38 GMT 41.511978 11.928917 11,300 219 334 1472
2022-08-09 08:31:34 GMT 41.516216 11.933324 11,225 219 330 1472
2022-08-09 08:31:27 GMT 41.523972 11.941577 11,075 219 326 1216
2022-08-09 08:31:23 GMT 41.528503 11.946446 11,000 219 321 1152
2022-08-09 08:31:17 GMT 41.535553 11.953999 10,875 220 314 1088
2022-08-09 08:31:14 GMT 41.538750 11.957405 10,775 220 312 1088
2022-08-09 08:31:11 GMT 41.542557 11.961552 10,775 220 309 1088
2022-08-09 08:31:06 GMT 41.547546 11.966922 10,675 220 305 1216
2022-08-09 08:31:01 GMT 41.552761 11.972607 10,575 220 299 1536
2022-08-09 08:30:57 GMT 41.558208 11.978547 10,425 220 294 1536
2022-08-09 08:30:53 GMT 41.561512 11.982124 10,225 220 292 1792
2022-08-09 08:30:49 GMT 41.565674 11.986708 10,225 220 292 1792
2022-08-09 08:30:41 GMT 41.574081 11.995984 9,850 220 291 2624
2022-08-09 08:30:34 GMT 41.582291 12.004998 9,525 220 289 2624
2022-08-09 08:30:31 GMT 41.584648 12.007673 9,425 219 289 2816
2022-08-09 08:30:24 GMT 41.591446 12.014986 9,100 219 290 3008
2022-08-09 08:30:21 GMT 41.595016 12.018731 8,925 217 291 2752
2022-08-09 08:30:15 GMT 41.601173 12.024856 8,375 217 290 2368
2022-08-09 08:30:10 GMT 41.606644 12.030029 8,300 213 289 2432
2022-08-09 08:30:06 GMT 41.612625 12.034884 8,300 208 290 2048
2022-08-09 08:30:02 GMT 41.621292 12.039767 8,125 199 286 1920
2022-08-09 08:29:58 GMT 41.621292 12.039767 8,075 190 283 1408
2022-08-09 08:29:55 GMT 41.625103 12.041271 8,000 194 285 1728
2022-08-09 08:29:50 GMT 41.637997 12.043698 7,400 178 256 832
2022-08-09 08:29:45 GMT 41.637997 12.043698 7,775 182 277 1088
2022-08-09 08:29:40 GMT 41.643955 12.043698 7,700 178 271 960
2022-08-09 08:29:34 GMT 41.651779 12.043513 7,475 178 263 960
2022-08-09 08:29:29 GMT 41.657684 12.043388 7,525 178 258 832
2022-08-09 08:29:24 GMT 41.663136 12.043187 7,425 179 251 768
2022-08-09 08:29:20 GMT 41.668350 12.043123 7,400 179 247 896
2022-08-09 08:29:14 GMT 41.675125 12.043013 7,275 179 241 1280
2022-08-09 08:29:09 GMT 41.680115 12.043076 7,175 181 236 1344
2022-08-09 08:29:04 GMT 41.685993 12.043251 6,950 183 233 1920
2022-08-09 08:28:59 GMT 41.691158 12.043634 6,875 185 231 1920
2022-08-09 08:28:53 GMT 41.698235 12.044976 6,675 199 229 1856
2022-08-09 08:28:49 GMT 41.702194 12.046509 6,550 200 229 1792
2022-08-09 08:28:42 GMT 41.708153 12.050150 6,400 211 225 1664
2022-08-09 08:28:37 GMT 41.712948 12.054301 6,225 217 224 1920
2022-08-09 08:28:29 GMT 41.719322 12.061711 5,925 223 222 2112
2022-08-09 08:28:23 GMT 41.724655 12.068294 5,675 223 222 2176
2022-08-09 08:28:20 GMT 41.725796 12.069695 5,625 223 221 2240
2022-08-09 08:28:16 GMT 41.729095 12.073787 5,475 223 220 1856
2022-08-09 08:28:12 GMT 41.732483 12.077907 5,350 223 219 1984
2022-08-09 08:28:06 GMT 41.736504 12.082853 5,150 223 218 2176
2022-08-09 08:28:02 GMT 41.739063 12.085983 5,000 223 218 2304
2022-08-09 08:27:56 GMT 41.744110 12.092202 4,775 223 218 2304
2022-08-09 08:27:53 GMT 41.746719 12.095385 4,650 223 218 2176
2022-08-09 08:27:50 GMT 41.748322 12.097258 4,575 223 218 2048
2022-08-09 08:27:46 GMT 41.751663 12.101378 4,425 223 218 1984
2022-08-09 08:27:42 GMT 41.754456 12.104686 4,300 223 217 1920
2022-08-09 08:27:37 GMT 41.757889 12.108931 4,150 223 215 1920
2022-08-09 08:27:34 GMT 41.760849 12.112555 4,000 223 215 2112
2022-08-09 08:27:30 GMT 41.763409 12.115748 3,875 223 215 2112
2022-08-09 08:27:27 GMT 41.765133 12.117920 3,800 223 213 1984
2022-08-09 08:27:19 GMT 41.770531 12.124499 3,550 223 212 2112
2022-08-09 08:27:17 GMT 41.772625 12.127118 3,300 223 212 2176
2022-08-09 08:27:09 GMT 41.778305 12.134272 3,175 225 210 1920
2022-08-09 08:27:06 GMT 41.780262 12.136827 2,450 254 212 2112
2022-08-09 08:27:02 GMT 41.783848 12.141937 2,900 232 209 2624
2022-08-09 08:26:58 GMT 41.785427 12.144492 2,775 232 209 2624
2022-08-09 08:26:56 GMT 41.786591 12.146727 2,675 238 210 2624
2022-08-09 08:26:49 GMT 41.789619 12.154647 2,425 252 212 2112
2022-08-09 08:26:46 GMT 41.790642 12.158863 2,300 256 212 2112
2022-08-09 08:26:39 GMT 41.791809 12.167546 2,050 266 211 2112
2022-08-09 08:26:35 GMT 41.791992 12.172664 1,925 268 211 1920
2022-08-09 08:26:30 GMT 41.792179 12.178856 1,800 268 209 1472
2022-08-09 08:26:25 GMT 41.792404 12.185586 1,700 268 200 576
2022-08-09 08:26:21 GMT 41.792645 12.191822 1,650 267 194 512
2022-08-09 08:26:14 GMT 41.792953 12.198882 1,575 259 185 2624
2022-08-09 08:26:08 GMT 41.793640 12.206248 1,500 262 185 1664
2022-08-09 08:26:03 GMT 41.794464 12.211990 1,275 259 185 2752
2022-08-09 08:26:00 GMT 41.795151 12.215673 1,050 252 188 2944
2022-08-09 08:25:54 GMT 41.796509 12.221460 800 251 188 2880
2022-08-09 08:25:49 GMT 41.798126 12.227409 550 251 188 2496
2022-08-09 08:25:44 GMT 41.799591 12.233027 325 250 187 2560
2022-08-09 08:25:39 GMT 41.801147 12.238645 125 250 187 2368
2022-08-09 08:25:33 GMT 41.802795 12.244637 -25 250 184 832
2022-08-09 08:25:26 GMT 41.804935 12.252439 -25 250 168 128
2022-08-09 08:25:23 GMT 41.805538 12.254674 -25 250 150 0
2022-08-09 08:25:19 GMT 41.806458 12.257871 0 250 130 0
2022-08-09 08:25:13 GMT 41.807728 12.262531 0 250 104 0
2022-08-09 08:25:09 GMT 41.808357 12.264846 0 250 88
2022-08-09 08:25:02 GMT 41.809124 12.267593 0 250 58
2022-08-09 08:24:59 GMT 41.809433 12.268763 0 250 38
2022-08-09 08:24:49 GMT 41.809742 12.269840 0 250 0
2022-08-09 08:24:32 GMT 41.809742 12.269887 0 253 0
2022-08-09 08:24:21 GMT 41.809753 12.269892 0 253 0
2022-08-09 08:24:07 GMT 41.809742 12.269887 0 253 0
2022-08-09 08:24:01 GMT 41.809765 12.269940 0 253 3
2022-08-09 08:23:57 GMT 41.809788 12.269996 0 258 3
2022-08-09 08:23:48 GMT 41.809856 12.270246 0 298 6
2022-08-09 08:23:40 GMT 41.809788 12.270483 0 323 7
2022-08-09 08:23:37 GMT 41.809731 12.270563 0 331 9
2022-08-09 08:23:30 GMT 41.809448 12.270754 0 337 10
2022-08-09 08:23:26 GMT 41.809311 12.270818 0 340 10
2022-08-09 08:23:19 GMT 41.809044 12.270962 0 340 8
2022-08-09 08:23:16 GMT 41.808941 12.271011 0 340 7
2022-08-09 08:23:07 GMT 41.808781 12.271089 0 340 0
2022-08-09 08:23:02 GMT 41.808769 12.271089 0 340 0
2022-08-09 08:22:48 GMT 41.808773 12.271090 0 340 0
2022-08-09 08:22:21 GMT 41.808769 12.271089 0 340 0
2022-08-09 08:22:16 GMT 41.808773 12.271090 0 340 0
2022-08-09 08:22:11 GMT 41.808769 12.271089 0 340 0
2022-08-09 08:21:51 GMT 41.808773 12.271090 0 340 0
2022-08-09 08:21:41 GMT 41.808769 12.271089 0 340 0
2022-08-09 08:21:25 GMT 41.808781 12.271089 0 340 0
2022-08-09 08:21:13 GMT 41.808746 12.271104 0 340 2
2022-08-09 08:21:04 GMT 41.808643 12.271167 0 340 4
2022-08-09 08:20:53 GMT 41.808392 12.271297 0 351 7
2022-08-09 08:20:44 GMT 41.808140 12.271370 0 19 7
2022-08-09 08:20:34 GMT 41.807796 12.271151 0 53 9
2022-08-09 08:20:23 GMT 41.807587 12.270707 0 67 10
2022-08-09 08:20:12 GMT 41.807419 12.270121 0 70 11
2022-08-09 08:20:02 GMT 41.807251 12.269477 0 70 12
2022-08-09 08:19:53 GMT 41.807041 12.268758 0 70 12
2022-08-09 08:19:41 GMT 41.806847 12.268030 0 70 14
2022-08-09 08:19:31 GMT 41.806633 12.267257 0 70 13
2022-08-09 08:19:21 GMT 41.806435 12.266547 0 70 12
2022-08-09 08:19:12 GMT 41.806248 12.265868 0 70 12
2022-08-09 08:19:01 GMT 41.806049 12.265149 0 70 13
2022-08-09 08:18:51 GMT 41.805828 12.264351 0 70 15
2022-08-09 08:18:40 GMT 41.805573 12.263441 0 70 15
2022-08-09 08:18:30 GMT 41.805336 12.262584 0 70 16
2022-08-09 08:18:21 GMT 41.805096 12.261700 0 70 16
2022-08-09 08:18:10 GMT 41.804844 12.260758 0 70 16
2022-08-09 08:17:59 GMT 41.804573 12.259800 0 70 16
2022-08-09 08:17:48 GMT 41.804283 12.258762 0 70 17
2022-08-09 08:17:38 GMT 41.804020 12.257762 0 70 18
2022-08-09 08:17:27 GMT 41.803711 12.256669 0 67 17
2022-08-09 08:17:17 GMT 41.803455 12.255760 0 70 16
2022-08-09 08:17:07 GMT 41.803211 12.254834 0 70 16
2022-08-09 08:16:57 GMT 41.802956 12.253938 0 70 16
2022-08-09 08:16:49 GMT 41.802723 12.253077 0 70 16
2022-08-09 08:16:46 GMT 41.802654 12.252854 0 70 16
2022-08-09 08:16:36 GMT 41.802406 12.251960 0 67 16
2022-08-09 08:16:25 GMT 41.802132 12.251020 0 75 15
2022-08-09 08:16:16 GMT 41.802048 12.250251 0 90 14
2022-08-09 08:16:05 GMT 41.802059 12.249373 0 87 14
2022-08-09 08:15:55 GMT 41.801994 12.248523 0 73 13
2022-08-09 08:15:47 GMT 41.801849 12.247904 0 70 13
2022-08-09 08:15:44 GMT 41.801800 12.247758 0 70 13
2022-08-09 08:15:37 GMT 41.801640 12.247153 0 70 14
2022-08-09 08:15:34 GMT 41.801582 12.246961 0 67 14
2022-08-09 08:15:24 GMT 41.801365 12.246167 0 70 14
2022-08-09 08:15:17 GMT 41.801193 12.245542 0 70 14
2022-08-09 08:15:14 GMT 41.801136 12.245339 0 70 14
2022-08-09 08:15:04 GMT 41.800930 12.244590 0 70 13
2022-08-09 08:14:56 GMT 41.800770 12.244029 0 70 12
2022-08-09 08:14:52 GMT 41.800701 12.243779 0 70 12
2022-08-09 08:14:43 GMT 41.800552 12.243202 0 70 11
2022-08-09 08:14:36 GMT 41.800426 12.242733 0 59 10
2022-08-09 08:14:32 GMT 41.800369 12.242562 0 47 10
2022-08-09 08:14:26 GMT 41.800163 12.242250 0 5 10
2022-08-09 08:14:21 GMT 41.800003 12.242187 0 348 9
2022-08-09 08:14:15 GMT 41.799763 12.242250 0 340 10
2022-08-09 08:14:11 GMT 41.799591 12.242343 0 340 10
2022-08-09 08:14:04 GMT 41.799290 12.242474 0 340 10
2022-08-09 08:14:01 GMT 41.799168 12.242546 0 337 10
2022-08-09 08:13:54 GMT 41.798870 12.242698 0 340 9
2022-08-09 08:13:51 GMT 41.798779 12.242746 0 343 9
2022-08-09 08:13:41 GMT 41.798401 12.242889 0 22 9
2022-08-09 08:13:35 GMT 41.798161 12.242765 0 59 9
2022-08-09 08:13:31 GMT 41.798092 12.242634 0 67 9
2022-08-09 08:13:24 GMT 41.797977 12.242281 0 70 9
2022-08-09 08:13:20 GMT 41.797920 12.242109 0 70 9
2022-08-09 08:13:14 GMT 41.797829 12.241781 0 70 8
2022-08-09 08:13:03 GMT 41.797707 12.241293 0 70 8
2022-08-09 08:13:00 GMT 41.797672 12.241165 0 70 8
2022-08-09 08:12:53 GMT 41.797604 12.240909 0 67 6
2022-08-09 08:12:49 GMT 41.797565 12.240798 0 67 5
2022-08-09 08:12:44 GMT 41.797520 12.240658 0 70 3
2022-08-09 08:12:39 GMT 41.797508 12.240611 0 70 2
2022-08-09 08:12:33 GMT 41.797497 12.240549 0 70 2
2022-08-09 08:12:29 GMT 41.797485 12.240526 0 70 1
2022-08-09 08:12:19 GMT 41.797474 12.240471 0 70 0
2022-08-09 08:12:11 GMT 41.797451 12.240408 0 70 2
2022-08-09 08:12:08 GMT 41.797451 12.240366 0 70 2
2022-08-09 08:12:02 GMT 41.797428 12.240299 0 70 2
2022-08-09 08:11:58 GMT 41.797417 12.240268 0 70 2
2022-08-09 08:11:53 GMT 41.797394 12.240190 0 70 4
2022-08-09 08:11:48 GMT 41.797371 12.240096 0 70 4
2022-08-09 08:11:41 GMT 41.797325 12.239956 0 70 5
2022-08-09 08:11:37 GMT 41.797298 12.239823 0 67 7
2022-08-09 08:11:32 GMT 41.797241 12.239616 0 67 7
2022-08-09 08:11:27 GMT 41.797176 12.239441 0 64 10
2022-08-09 08:11:21 GMT 41.797077 12.239121 0 42 10
2022-08-09 08:11:17 GMT 41.796993 12.238957 0 22 9
2022-08-09 08:11:11 GMT 41.796787 12.238817 0 354 9
2022-08-09 08:11:06 GMT 41.796589 12.238833 0 343 9
2022-08-09 08:10:59 GMT 41.796276 12.238961 0 340 10
2022-08-09 08:10:56 GMT 41.796169 12.239019 0 340 11
2022-08-09 08:10:46 GMT 41.795692 12.239265 0 340 11
2022-08-09 08:10:35 GMT 41.795181 12.239504 0 340 12
2022-08-09 08:10:25 GMT 41.794693 12.239744 0 340 11
2022-08-09 08:10:15 GMT 41.794228 12.239967 0 337 10
2022-08-09 08:10:04 GMT 41.793812 12.240205 0 315 9
2022-08-09 08:09:54 GMT 41.793583 12.240564 0 267 8
2022-08-09 08:09:44 GMT 41.793629 12.241017 0 250 7
2022-08-09 08:09:31 GMT 41.793720 12.241376 0 250 0
2022-08-09 08:09:11 GMT 41.793720 12.241391 0 250 0
2022-08-09 08:09:01 GMT 41.793716 12.241388 0 250 0
2022-08-09 08:08:51 GMT 41.793720 12.241391 0 250 0
2022-08-09 08:08:10 GMT 41.793716 12.241388 0 250 0
2022-08-09 08:07:05 GMT 41.793720 12.241391 0 250 0
2022-08-09 08:06:06 GMT 41.793716 12.241388 0 250 0
2022-08-09 08:05:55 GMT 41.793709 12.241391 0 250 0
2022-08-09 08:05:36 GMT 41.793716 12.241388 0 250 0
2022-08-09 08:04:51 GMT 41.793709 12.241391 0 250 0
2022-08-09 08:04:41 GMT 41.793716 12.241388 0 250 0
2022-08-09 08:04:11 GMT 41.793709 12.241391 0 250 0
2022-08-09 08:04:01 GMT 41.793716 12.241388 0 250 0
2022-08-09 08:03:41 GMT 41.793709 12.241391 0 250 0
2022-08-09 08:03:27 GMT 41.793716 12.241388 0 250 0
2022-08-09 08:03:21 GMT 41.793709 12.241391 0 250 0
2022-08-09 08:03:11 GMT 41.793720 12.241391 0 250 0
2022-08-09 08:03:00 GMT 41.793716 12.241388 0 250 2
2022-08-09 08:02:50 GMT 41.793755 12.241532 0 250 3
2022-08-09 08:02:40 GMT 41.793808 12.241708 0 250 4
2022-08-09 08:02:30 GMT 41.793854 12.241915 0 250 4
2022-08-09 08:02:19 GMT 41.793911 12.242107 0 250 4
2022-08-09 08:02:09 GMT 41.793961 12.242296 0 253 3
2022-08-09 08:01:58 GMT 41.794006 12.242421 0 261 2
2022-08-09 08:01:48 GMT 41.794006 12.242468 0 261 0
2022-08-09 08:01:38 GMT 41.794041 12.242374 0 272 2
2022-08-09 08:01:27 GMT 41.794144 12.242283 0 300 3
2022-08-09 08:01:17 GMT 41.794250 12.242219 0 320 3
2022-08-09 08:01:07 GMT 41.794365 12.242171 0 329 3
2022-08-09 08:00:57 GMT 41.794472 12.242123 0 334 3
2022-08-09 08:00:46 GMT 41.794613 12.242059 0 337 4
2022-08-09 08:00:35 GMT 41.794762 12.241969 0 337 3
2022-08-09 08:00:22 GMT 41.794899 12.241906 0 340 0
2022-08-09 07:59:52 GMT 41.794910 12.241906 0 340 0
2022-08-09 07:59:42 GMT 41.794914 12.241899 0 340 0
2022-08-09 07:59:12 GMT 41.794926 12.241899 0 340 0
2022-08-09 07:58:52 GMT 41.794922 12.241891 0 340 0

Making use of Plane Finder data

You are free to use the raw flight data, aircraft information and images provided in this report for your own purposes provided the data is correctly attributed to Plane Finder. We ask that you please credit Plane Finder and link to planefinder.net in close proximity to the content.

Optionally one of the following logos (no smaller then 150x24px) can be used and must link to planefinder.net

Embedding the Plane Finder map

You are welcome to embed the Plane Finder playback map on your website to offer visitors a more interactive experience. We suggest using the following HTML code:

<iframe src="//planefinder.net/data/report/AA721-N752AN-7700-squawk-2022-08-09/map" width="800" height="600" seamless="seamless"></iframe>

Where our data comes from

Plane Finder has a global network of data feeds and antenna radars that receive data broadcast directly from aircraft. The primary technologies used are ADS-B and MLAT. We also show feeds from the FAA and a FLARM glider feed.

Click here to find out more about the Plane Finder network.

How we collect our data